sensor_id;sensor_type;location;lat;lon;timestamp;P1;durP1;ratioP1;P2;durP2;ratioP2
42192;SDS011;52467;40.114;18.306;2023-07-13T00:01:54;9.70;;;4.43;;
42192;SDS011;52467;40.114;18.306;2023-07-13T00:04:23;9.23;;;4.50;;
42192;SDS011;52467;40.114;18.306;2023-07-13T00:06:52;10.75;;;4.82;;
42192;SDS011;52467;40.114;18.306;2023-07-13T00:09:19;8.95;;;5.07;;
42192;SDS011;52467;40.114;18.306;2023-07-13T00:11:52;8.03;;;4.60;;
42192;SDS011;52467;40.114;18.306;2023-07-13T00:14:22;10.32;;;4.80;;
42192;SDS011;52467;40.114;18.306;2023-07-13T00:16:50;9.27;;;4.90;;
42192;SDS011;52467;40.114;18.306;2023-07-13T00:19:18;11.15;;;4.57;;
42192;SDS011;52467;40.114;18.306;2023-07-13T00:21:45;7.75;;;4.07;;
42192;SDS011;52467;40.114;18.306;2023-07-13T00:24:14;7.95;;;4.47;;
42192;SDS011;52467;40.114;18.306;2023-07-13T00:26:48;8.38;;;4.40;;
42192;SDS011;52467;40.114;18.306;2023-07-13T00:29:16;9.70;;;4.70;;
42192;SDS011;52467;40.114;18.306;2023-07-13T00:31:43;11.05;;;4.85;;
42192;SDS011;52467;40.114;18.306;2023-07-13T00:34:11;6.78;;;4.10;;
42192;SDS011;52467;40.114;18.306;2023-07-13T00:36:38;13.03;;;4.33;;
42192;SDS011;52467;40.114;18.306;2023-07-13T00:39:06;10.13;;;4.10;;
42192;SDS011;52467;40.114;18.306;2023-07-13T00:41:34;11.80;;;4.60;;
42192;SDS011;52467;40.114;18.306;2023-07-13T00:44:03;10.93;;;4.70;;
42192;SDS011;52467;40.114;18.306;2023-07-13T00:46:33;8.63;;;4.40;;
42192;SDS011;52467;40.114;18.306;2023-07-13T00:49:03;6.78;;;4.68;;
42192;SDS011;52467;40.114;18.306;2023-07-13T00:51:42;11.40;;;4.47;;
42192;SDS011;52467;40.114;18.306;2023-07-13T00:54:15;6.15;;;4.20;;
42192;SDS011;52467;40.114;18.306;2023-07-13T00:56:45;7.45;;;4.50;;
42192;SDS011;52467;40.114;18.306;2023-07-13T00:59:15;9.82;;;4.32;;
42192;SDS011;52467;40.114;18.306;2023-07-13T01:01:45;8.02;;;4.57;;
42192;SDS011;52467;40.114;18.306;2023-07-13T01:04:13;10.73;;;4.70;;
42192;SDS011;52467;40.114;18.306;2023-07-13T01:06:41;13.70;;;4.95;;
42192;SDS011;52467;40.114;18.306;2023-07-13T01:09:11;7.78;;;4.53;;
42192;SDS011;52467;40.114;18.306;2023-07-13T01:11:39;12.13;;;4.45;;
42192;SDS011;52467;40.114;18.306;2023-07-13T01:14:08;11.20;;;4.32;;
42192;SDS011;52467;40.114;18.306;2023-07-13T01:16:36;14.13;;;4.77;;
42192;SDS011;52467;40.114;18.306;2023-07-13T01:19:07;6.03;;;4.07;;
42192;SDS011;52467;40.114;18.306;2023-07-13T01:21:49;8.83;;;4.30;;
42192;SDS011;52467;40.114;18.306;2023-07-13T01:24:17;9.82;;;4.47;;
42192;SDS011;52467;40.114;18.306;2023-07-13T01:26:44;9.52;;;4.40;;
42192;SDS011;52467;40.114;18.306;2023-07-13T01:29:12;7.65;;;4.18;;
42192;SDS011;52467;40.114;18.306;2023-07-13T01:31:39;6.13;;;4.32;;
42192;SDS011;52467;40.114;18.306;2023-07-13T01:34:06;6.97;;;4.30;;
42192;SDS011;52467;40.114;18.306;2023-07-13T01:36:36;8.73;;;4.72;;
42192;SDS011;52467;40.114;18.306;2023-07-13T01:39:05;8.27;;;4.53;;
42192;SDS011;52467;40.114;18.306;2023-07-13T01:41:33;7.80;;;4.38;;
42192;SDS011;52467;40.114;18.306;2023-07-13T01:44:00;9.30;;;4.32;;
42192;SDS011;52467;40.114;18.306;2023-07-13T01:46:28;8.75;;;4.68;;
42192;SDS011;52467;40.114;18.306;2023-07-13T01:48:55;8.75;;;4.70;;
42192;SDS011;52467;40.114;18.306;2023-07-13T01:51:23;12.25;;;4.32;;
42192;SDS011;52467;40.114;18.306;2023-07-13T01:53:51;13.73;;;4.13;;
42192;SDS011;52467;40.114;18.306;2023-07-13T01:56:18;9.43;;;4.25;;
42192;SDS011;52467;40.114;18.306;2023-07-13T01:58:46;8.20;;;4.50;;
42192;SDS011;52467;40.114;18.306;2023-07-13T02:01:13;12.68;;;4.82;;
42192;SDS011;52467;40.114;18.306;2023-07-13T02:03:41;9.27;;;4.20;;
42192;SDS011;52467;40.114;18.306;2023-07-13T02:06:08;11.50;;;4.60;;
42192;SDS011;52467;40.114;18.306;2023-07-13T02:08:36;9.45;;;4.32;;
42192;SDS011;52467;40.114;18.306;2023-07-13T02:11:04;10.73;;;4.57;;
42192;SDS011;52467;40.114;18.306;2023-07-13T02:13:31;11.03;;;4.93;;
42192;SDS011;52467;40.114;18.306;2023-07-13T02:15:58;10.90;;;4.33;;
42192;SDS011;52467;40.114;18.306;2023-07-13T02:18:26;12.10;;;4.93;;
42192;SDS011;52467;40.114;18.306;2023-07-13T02:20:53;10.00;;;4.45;;
42192;SDS011;52467;40.114;18.306;2023-07-13T02:23:21;8.90;;;4.78;;
42192;SDS011;52467;40.114;18.306;2023-07-13T02:25:48;13.18;;;4.85;;
42192;SDS011;52467;40.114;18.306;2023-07-13T02:28:15;8.25;;;4.65;;
42192;SDS011;52467;40.114;18.306;2023-07-13T02:30:43;8.85;;;4.60;;
42192;SDS011;52467;40.114;18.306;2023-07-13T02:33:10;9.55;;;4.90;;
42192;SDS011;52467;40.114;18.306;2023-07-13T02:35:37;8.57;;;4.80;;
42192;SDS011;52467;40.114;18.306;2023-07-13T02:38:05;9.27;;;4.33;;
42192;SDS011;52467;40.114;18.306;2023-07-13T02:40:32;7.70;;;4.70;;
42192;SDS011;52467;40.114;18.306;2023-07-13T02:43:02;13.07;;;4.93;;
42192;SDS011;52467;40.114;18.306;2023-07-13T02:45:30;13.60;;;5.05;;
42192;SDS011;52467;40.114;18.306;2023-07-13T02:47:58;8.35;;;5.07;;
42192;SDS011;52467;40.114;18.306;2023-07-13T02:50:25;11.05;;;4.50;;
42192;SDS011;52467;40.114;18.306;2023-07-13T02:52:52;13.60;;;5.03;;
42192;SDS011;52467;40.114;18.306;2023-07-13T02:55:20;10.38;;;4.93;;
42192;SDS011;52467;40.114;18.306;2023-07-13T02:57:47;11.10;;;5.43;;
42192;SDS011;52467;40.114;18.306;2023-07-13T03:00:16;9.10;;;4.60;;
42192;SDS011;52467;40.114;18.306;2023-07-13T03:02:44;10.90;;;4.90;;
42192;SDS011;52467;40.114;18.306;2023-07-13T03:05:12;8.33;;;4.90;;
42192;SDS011;52467;40.114;18.306;2023-07-13T03:07:42;9.52;;;4.90;;
42192;SDS011;52467;40.114;18.306;2023-07-13T03:10:11;6.90;;;4.40;;
42192;SDS011;52467;40.114;18.306;2023-07-13T03:12:46;7.77;;;4.97;;
42192;SDS011;52467;40.114;18.306;2023-07-13T03:15:21;7.43;;;4.80;;
42192;SDS011;52467;40.114;18.306;2023-07-13T03:17:50;7.18;;;4.75;;
42192;SDS011;52467;40.114;18.306;2023-07-13T03:20:17;11.68;;;5.03;;
42192;SDS011;52467;40.114;18.306;2023-07-13T03:22:45;9.38;;;4.68;;
42192;SDS011;52467;40.114;18.306;2023-07-13T03:25:13;9.52;;;4.82;;
42192;SDS011;52467;40.114;18.306;2023-07-13T03:27:41;7.20;;;4.63;;
42192;SDS011;52467;40.114;18.306;2023-07-13T03:30:09;8.55;;;4.65;;
42192;SDS011;52467;40.114;18.306;2023-07-13T03:32:38;8.35;;;4.70;;
42192;SDS011;52467;40.114;18.306;2023-07-13T03:35:05;13.82;;;4.90;;
42192;SDS011;52467;40.114;18.306;2023-07-13T03:37:33;10.32;;;4.75;;
42192;SDS011;52467;40.114;18.306;2023-07-13T03:40:00;11.73;;;5.03;;
42192;SDS011;52467;40.114;18.306;2023-07-13T03:42:30;7.03;;;4.30;;
42192;SDS011;52467;40.114;18.306;2023-07-13T03:44:57;8.45;;;4.70;;
42192;SDS011;52467;40.114;18.306;2023-07-13T03:47:24;8.52;;;4.53;;
42192;SDS011;52467;40.114;18.306;2023-07-13T03:49:52;9.88;;;5.07;;
42192;SDS011;52467;40.114;18.306;2023-07-13T03:52:20;8.20;;;4.95;;
42192;SDS011;52467;40.114;18.306;2023-07-13T03:54:47;11.05;;;4.50;;
42192;SDS011;52467;40.114;18.306;2023-07-13T03:57:16;9.13;;;5.05;;
42192;SDS011;52467;40.114;18.306;2023-07-13T03:59:43;8.93;;;4.70;;
42192;SDS011;52467;40.114;18.306;2023-07-13T04:02:11;8.33;;;4.43;;
42192;SDS011;52467;40.114;18.306;2023-07-13T04:04:39;6.63;;;4.60;;
42192;SDS011;52467;40.114;18.306;2023-07-13T04:07:07;11.32;;;5.15;;
42192;SDS011;52467;40.114;18.306;2023-07-13T04:09:37;8.15;;;5.45;;
42192;SDS011;52467;40.114;18.306;2023-07-13T04:12:05;12.20;;;5.10;;
42192;SDS011;52467;40.114;18.306;2023-07-13T04:14:33;8.43;;;5.05;;
42192;SDS011;52467;40.114;18.306;2023-07-13T04:17:00;9.30;;;5.13;;
42192;SDS011;52467;40.114;18.306;2023-07-13T04:19:27;8.85;;;5.38;;
42192;SDS011;52467;40.114;18.306;2023-07-13T04:21:55;10.18;;;5.22;;
42192;SDS011;52467;40.114;18.306;2023-07-13T04:24:22;10.73;;;5.55;;
42192;SDS011;52467;40.114;18.306;2023-07-13T04:26:49;8.98;;;4.93;;
42192;SDS011;52467;40.114;18.306;2023-07-13T04:29:17;9.90;;;5.07;;
42192;SDS011;52467;40.114;18.306;2023-07-13T04:31:44;9.30;;;5.55;;
42192;SDS011;52467;40.114;18.306;2023-07-13T04:34:11;7.37;;;4.63;;
42192;SDS011;52467;40.114;18.306;2023-07-13T04:36:39;7.38;;;4.90;;
42192;SDS011;52467;40.114;18.306;2023-07-13T04:39:06;8.68;;;5.13;;
42192;SDS011;52467;40.114;18.306;2023-07-13T04:41:34;11.15;;;4.93;;
42192;SDS011;52467;40.114;18.306;2023-07-13T04:44:01;11.25;;;4.88;;
42192;SDS011;52467;40.114;18.306;2023-07-13T04:46:30;13.65;;;4.90;;
42192;SDS011;52467;40.114;18.306;2023-07-13T04:48:57;11.60;;;4.53;;
42192;SDS011;52467;40.114;18.306;2023-07-13T04:51:25;7.88;;;4.70;;
42192;SDS011;52467;40.114;18.306;2023-07-13T04:53:53;12.77;;;4.65;;
42192;SDS011;52467;40.114;18.306;2023-07-13T04:56:23;8.38;;;4.75;;
42192;SDS011;52467;40.114;18.306;2023-07-13T04:58:51;9.43;;;5.28;;
42192;SDS011;52467;40.114;18.306;2023-07-13T05:01:18;17.05;;;5.03;;
42192;SDS011;52467;40.114;18.306;2023-07-13T05:03:46;10.80;;;4.95;;
42192;SDS011;52467;40.114;18.306;2023-07-13T05:06:14;8.38;;;4.85;;
42192;SDS011;52467;40.114;18.306;2023-07-13T05:08:41;10.07;;;4.90;;
42192;SDS011;52467;40.114;18.306;2023-07-13T05:11:09;12.02;;;4.93;;
42192;SDS011;52467;40.114;18.306;2023-07-13T05:13:37;10.77;;;5.00;;
42192;SDS011;52467;40.114;18.306;2023-07-13T05:16:05;8.30;;;4.78;;
42192;SDS011;52467;40.114;18.306;2023-07-13T05:18:34;8.98;;;4.32;;
42192;SDS011;52467;40.114;18.306;2023-07-13T05:21:03;9.43;;;4.93;;
42192;SDS011;52467;40.114;18.306;2023-07-13T05:23:33;11.60;;;4.97;;
42192;SDS011;52467;40.114;18.306;2023-07-13T05:26:01;9.77;;;4.80;;
42192;SDS011;52467;40.114;18.306;2023-07-13T05:28:30;9.90;;;5.10;;
42192;SDS011;52467;40.114;18.306;2023-07-13T05:30:58;10.75;;;4.60;;
42192;SDS011;52467;40.114;18.306;2023-07-13T05:33:26;10.30;;;4.60;;
42192;SDS011;52467;40.114;18.306;2023-07-13T05:35:54;7.28;;;4.78;;
42192;SDS011;52467;40.114;18.306;2023-07-13T05:38:21;10.43;;;4.50;;
42192;SDS011;52467;40.114;18.306;2023-07-13T05:40:49;10.75;;;5.00;;
42192;SDS011;52467;40.114;18.306;2023-07-13T05:43:17;11.52;;;5.00;;
42192;SDS011;52467;40.114;18.306;2023-07-13T05:45:44;15.30;;;5.28;;
42192;SDS011;52467;40.114;18.306;2023-07-13T05:48:12;15.43;;;4.97;;
42192;SDS011;52467;40.114;18.306;2023-07-13T05:50:39;10.27;;;4.95;;
42192;SDS011;52467;40.114;18.306;2023-07-13T05:53:07;11.10;;;4.93;;
42192;SDS011;52467;40.114;18.306;2023-07-13T05:55:34;14.88;;;4.78;;
42192;SDS011;52467;40.114;18.306;2023-07-13T05:58:01;8.93;;;4.55;;
42192;SDS011;52467;40.114;18.306;2023-07-13T06:00:29;13.47;;;5.20;;
42192;SDS011;52467;40.114;18.306;2023-07-13T06:02:56;12.70;;;4.80;;
42192;SDS011;52467;40.114;18.306;2023-07-13T06:05:25;10.90;;;4.72;;
42192;SDS011;52467;40.114;18.306;2023-07-13T06:07:53;10.18;;;4.50;;
42192;SDS011;52467;40.114;18.306;2023-07-13T06:10:21;11.82;;;4.38;;
42192;SDS011;52467;40.114;18.306;2023-07-13T06:12:48;9.35;;;4.13;;
42192;SDS011;52467;40.114;18.306;2023-07-13T06:15:15;9.35;;;4.07;;
42192;SDS011;52467;40.114;18.306;2023-07-13T06:17:44;9.85;;;4.00;;
42192;SDS011;52467;40.114;18.306;2023-07-13T06:20:11;13.13;;;4.70;;
42192;SDS011;52467;40.114;18.306;2023-07-13T06:22:39;7.47;;;4.40;;
42192;SDS011;52467;40.114;18.306;2023-07-13T06:25:06;7.50;;;3.90;;
42192;SDS011;52467;40.114;18.306;2023-07-13T06:27:34;12.15;;;4.70;;
42192;SDS011;52467;40.114;18.306;2023-07-13T06:30:01;6.07;;;3.40;;
42192;SDS011;52467;40.114;18.306;2023-07-13T06:32:29;9.97;;;3.70;;
42192;SDS011;52467;40.114;18.306;2023-07-13T06:34:57;8.37;;;3.67;;
42192;SDS011;52467;40.114;18.306;2023-07-13T06:37:24;7.47;;;3.53;;
42192;SDS011;52467;40.114;18.306;2023-07-13T06:39:51;7.13;;;3.67;;
42192;SDS011;52467;40.114;18.306;2023-07-13T06:42:18;9.50;;;4.10;;
42192;SDS011;52467;40.114;18.306;2023-07-13T06:44:46;7.63;;;3.65;;
42192;SDS011;52467;40.114;18.306;2023-07-13T06:47:13;8.52;;;3.28;;
42192;SDS011;52467;40.114;18.306;2023-07-13T06:49:40;6.03;;;3.38;;
42192;SDS011;52467;40.114;18.306;2023-07-13T06:52:07;6.65;;;3.80;;
42192;SDS011;52467;40.114;18.306;2023-07-13T06:54:35;9.83;;;4.00;;
42192;SDS011;52467;40.114;18.306;2023-07-13T06:57:02;11.77;;;3.67;;
42192;SDS011;52467;40.114;18.306;2023-07-13T06:59:30;7.72;;;3.60;;
42192;SDS011;52467;40.114;18.306;2023-07-13T07:01:57;9.30;;;3.70;;
42192;SDS011;52467;40.114;18.306;2023-07-13T07:04:24;6.95;;;3.53;;
42192;SDS011;52467;40.114;18.306;2023-07-13T07:06:52;8.73;;;3.40;;
42192;SDS011;52467;40.114;18.306;2023-07-13T07:09:20;11.27;;;3.10;;
42192;SDS011;52467;40.114;18.306;2023-07-13T07:11:47;5.63;;;3.35;;
42192;SDS011;52467;40.114;18.306;2023-07-13T07:14:23;7.57;;;3.10;;
42192;SDS011;52467;40.114;18.306;2023-07-13T07:16:50;7.70;;;3.15;;
42192;SDS011;52467;40.114;18.306;2023-07-13T07:19:17;7.30;;;3.60;;
42192;SDS011;52467;40.114;18.306;2023-07-13T07:21:45;6.43;;;3.20;;
42192;SDS011;52467;40.114;18.306;2023-07-13T07:24:12;9.45;;;3.50;;
42192;SDS011;52467;40.114;18.306;2023-07-13T07:26:39;8.52;;;2.60;;
42192;SDS011;52467;40.114;18.306;2023-07-13T07:29:27;6.30;;;2.65;;
42192;SDS011;52467;40.114;18.306;2023-07-13T07:31:58;4.90;;;2.40;;
42192;SDS011;52467;40.114;18.306;2023-07-13T07:34:29;4.73;;;2.70;;
42192;SDS011;52467;40.114;18.306;2023-07-13T07:37:00;5.75;;;2.90;;
42192;SDS011;52467;40.114;18.306;2023-07-13T07:39:31;4.75;;;2.40;;
42192;SDS011;52467;40.114;18.306;2023-07-13T07:41:58;4.00;;;2.15;;
42192;SDS011;52467;40.114;18.306;2023-07-13T07:44:26;5.65;;;2.45;;
42192;SDS011;52467;40.114;18.306;2023-07-13T07:46:55;4.32;;;2.50;;
42192;SDS011;52467;40.114;18.306;2023-07-13T07:49:22;5.90;;;2.37;;
42192;SDS011;52467;40.114;18.306;2023-07-13T07:51:49;3.53;;;2.30;;
42192;SDS011;52467;40.114;18.306;2023-07-13T07:54:17;3.83;;;2.40;;
42192;SDS011;52467;40.114;18.306;2023-07-13T07:56:47;4.78;;;2.30;;
42192;SDS011;52467;40.114;18.306;2023-07-13T07:59:36;5.40;;;2.40;;
42192;SDS011;52467;40.114;18.306;2023-07-13T08:02:08;5.38;;;2.40;;
42192;SDS011;52467;40.114;18.306;2023-07-13T08:04:37;6.47;;;2.50;;
42192;SDS011;52467;40.114;18.306;2023-07-13T08:07:25;5.45;;;2.53;;
42192;SDS011;52467;40.114;18.306;2023-07-13T08:09:52;5.28;;;2.40;;
42192;SDS011;52467;40.114;18.306;2023-07-13T08:12:20;6.43;;;2.20;;
42192;SDS011;52467;40.114;18.306;2023-07-13T08:14:50;6.80;;;2.13;;
42192;SDS011;52467;40.114;18.306;2023-07-13T08:17:20;5.28;;;2.20;;
42192;SDS011;52467;40.114;18.306;2023-07-13T08:19:47;6.17;;;2.50;;
42192;SDS011;52467;40.114;18.306;2023-07-13T08:22:15;3.17;;;2.30;;
42192;SDS011;52467;40.114;18.306;2023-07-13T08:24:42;7.95;;;2.45;;
42192;SDS011;52467;40.114;18.306;2023-07-13T08:27:10;6.05;;;2.53;;
42192;SDS011;52467;40.114;18.306;2023-07-13T08:29:38;4.28;;;2.25;;
42192;SDS011;52467;40.114;18.306;2023-07-13T08:32:06;5.32;;;2.17;;
42192;SDS011;52467;40.114;18.306;2023-07-13T08:34:36;4.78;;;2.30;;
42192;SDS011;52467;40.114;18.306;2023-07-13T08:37:04;3.90;;;2.03;;
42192;SDS011;52467;40.114;18.306;2023-07-13T08:39:32;4.75;;;2.45;;
42192;SDS011;52467;40.114;18.306;2023-07-13T08:42:02;3.50;;;2.20;;
42192;SDS011;52467;40.114;18.306;2023-07-13T08:47:32;3.53;;;2.15;;
42192;SDS011;52467;40.114;18.306;2023-07-13T08:50:03;4.72;;;2.50;;
42192;SDS011;52467;40.114;18.306;2023-07-13T08:52:40;6.10;;;2.25;;
42192;SDS011;52467;40.114;18.306;2023-07-13T08:55:16;5.40;;;2.13;;
42192;SDS011;52467;40.114;18.306;2023-07-13T08:58:03;5.72;;;2.80;;
42192;SDS011;52467;40.114;18.306;2023-07-13T09:00:40;4.88;;;2.13;;
42192;SDS011;52467;40.114;18.306;2023-07-13T09:03:33;3.00;;;2.25;;
42192;SDS011;52467;40.114;18.306;2023-07-13T09:06:13;4.13;;;2.50;;
42192;SDS011;52467;40.114;18.306;2023-07-13T09:12:01;4.73;;;1.73;;
42192;SDS011;52467;40.114;18.306;2023-07-13T09:17:24;4.43;;;2.00;;
42192;SDS011;52467;40.114;18.306;2023-07-13T09:20:01;5.95;;;1.98;;
42192;SDS011;52467;40.114;18.306;2023-07-13T09:22:32;3.00;;;2.17;;
42192;SDS011;52467;40.114;18.306;2023-07-13T09:27:42;4.00;;;2.00;;
42192;SDS011;52467;40.114;18.306;2023-07-13T09:32:42;5.63;;;2.08;;
42192;SDS011;52467;40.114;18.306;2023-07-13T09:35:12;3.65;;;2.05;;
42192;SDS011;52467;40.114;18.306;2023-07-13T09:37:43;2.78;;;1.90;;
42192;SDS011;52467;40.114;18.306;2023-07-13T09:40:21;5.88;;;2.63;;
42192;SDS011;52467;40.114;18.306;2023-07-13T09:42:53;9.02;;;2.45;;
42192;SDS011;52467;40.114;18.306;2023-07-13T09:45:26;4.03;;;2.15;;
42192;SDS011;52467;40.114;18.306;2023-07-13T09:48:10;5.13;;;1.73;;
42192;SDS011;52467;40.114;18.306;2023-07-13T09:50:40;4.13;;;1.90;;
42192;SDS011;52467;40.114;18.306;2023-07-13T09:53:12;3.88;;;1.85;;
42192;SDS011;52467;40.114;18.306;2023-07-13T09:55:42;5.70;;;2.03;;
42192;SDS011;52467;40.114;18.306;2023-07-13T09:58:12;5.82;;;2.78;;
42192;SDS011;52467;40.114;18.306;2023-07-13T10:00:41;6.03;;;1.80;;
42192;SDS011;52467;40.114;18.306;2023-07-13T10:03:21;4.30;;;2.13;;
42192;SDS011;52467;40.114;18.306;2023-07-13T10:05:52;4.83;;;2.00;;
42192;SDS011;52467;40.114;18.306;2023-07-13T10:08:23;3.27;;;2.00;;
42192;SDS011;52467;40.114;18.306;2023-07-13T10:10:53;3.17;;;2.03;;
42192;SDS011;52467;40.114;18.306;2023-07-13T10:13:25;5.10;;;2.08;;
42192;SDS011;52467;40.114;18.306;2023-07-13T10:15:58;5.53;;;2.00;;
42192;SDS011;52467;40.114;18.306;2023-07-13T10:18:26;5.78;;;2.35;;
42192;SDS011;52467;40.114;18.306;2023-07-13T10:20:54;4.25;;;1.92;;
42192;SDS011;52467;40.114;18.306;2023-07-13T10:23:33;5.57;;;2.25;;
42192;SDS011;52467;40.114;18.306;2023-07-13T10:26:01;4.28;;;1.88;;
42192;SDS011;52467;40.114;18.306;2023-07-13T10:28:31;3.42;;;2.00;;
42192;SDS011;52467;40.114;18.306;2023-07-13T10:31:02;3.58;;;2.15;;
42192;SDS011;52467;40.114;18.306;2023-07-13T10:33:33;4.20;;;2.10;;
42192;SDS011;52467;40.114;18.306;2023-07-13T10:36:05;3.00;;;2.10;;
42192;SDS011;52467;40.114;18.306;2023-07-13T10:38:40;3.60;;;1.90;;
42192;SDS011;52467;40.114;18.306;2023-07-13T10:41:10;3.00;;;1.85;;
42192;SDS011;52467;40.114;18.306;2023-07-13T10:43:42;4.47;;;2.15;;
42192;SDS011;52467;40.114;18.306;2023-07-13T10:46:12;3.33;;;1.80;;
42192;SDS011;52467;40.114;18.306;2023-07-13T10:48:42;6.55;;;1.90;;
42192;SDS011;52467;40.114;18.306;2023-07-13T10:51:13;4.15;;;2.00;;
42192;SDS011;52467;40.114;18.306;2023-07-13T10:53:43;4.77;;;2.30;;
42192;SDS011;52467;40.114;18.306;2023-07-13T10:59:36;4.75;;;2.20;;
42192;SDS011;52467;40.114;18.306;2023-07-13T11:01:57;8.37;;;4.73;;
42192;SDS011;52467;40.114;18.306;2023-07-13T11:04:27;9.00;;;3.90;;
42192;SDS011;52467;40.114;18.306;2023-07-13T11:06:57;7.70;;;2.65;;
42192;SDS011;52467;40.114;18.306;2023-07-13T11:09:34;3.70;;;2.40;;
42192;SDS011;52467;40.114;18.306;2023-07-13T11:12:50;7.32;;;2.95;;
42192;SDS011;52467;40.114;18.306;2023-07-13T11:17:33;3.83;;;2.50;;
42192;SDS011;52467;40.114;18.306;2023-07-13T11:22:43;4.72;;;2.35;;
42192;SDS011;52467;40.114;18.306;2023-07-13T11:30:38;5.22;;;2.47;;
42192;SDS011;52467;40.114;18.306;2023-07-13T11:36:07;6.95;;;2.15;;
42192;SDS011;52467;40.114;18.306;2023-07-13T11:38:58;3.50;;;2.42;;
42192;SDS011;52467;40.114;18.306;2023-07-13T11:41:51;4.50;;;2.03;;
42192;SDS011;52467;40.114;18.306;2023-07-13T11:44:24;8.32;;;2.10;;
42192;SDS011;52467;40.114;18.306;2023-07-13T11:46:53;4.47;;;2.15;;
42192;SDS011;52467;40.114;18.306;2023-07-13T11:49:25;3.92;;;2.20;;
42192;SDS011;52467;40.114;18.306;2023-07-13T11:51:53;3.70;;;2.10;;
42192;SDS011;52467;40.114;18.306;2023-07-13T11:54:32;8.95;;;2.03;;
42192;SDS011;52467;40.114;18.306;2023-07-13T11:57:02;3.67;;;1.80;;
42192;SDS011;52467;40.114;18.306;2023-07-13T11:59:46;5.32;;;2.13;;
42192;SDS011;52467;40.114;18.306;2023-07-13T12:02:15;8.95;;;1.90;;
42192;SDS011;52467;40.114;18.306;2023-07-13T12:05:04;8.43;;;1.98;;
42192;SDS011;52467;40.114;18.306;2023-07-13T12:07:32;10.20;;;2.30;;
42192;SDS011;52467;40.114;18.306;2023-07-13T12:10:03;3.77;;;1.90;;
42192;SDS011;52467;40.114;18.306;2023-07-13T12:12:52;2.90;;;1.70;;
42192;SDS011;52467;40.114;18.306;2023-07-13T12:15:21;2.88;;;1.33;;
42192;SDS011;52467;40.114;18.306;2023-07-13T12:17:50;2.80;;;1.50;;
42192;SDS011;52467;40.114;18.306;2023-07-13T12:22:50;2.53;;;1.30;;
42192;SDS011;52467;40.114;18.306;2023-07-13T12:25:18;3.22;;;1.88;;
42192;SDS011;52467;40.114;18.306;2023-07-13T12:27:50;3.37;;;1.60;;
42192;SDS011;52467;40.114;18.306;2023-07-13T12:30:25;3.28;;;1.45;;
42192;SDS011;52467;40.114;18.306;2023-07-13T12:33:01;4.30;;;1.48;;
42192;SDS011;52467;40.114;18.306;2023-07-13T12:35:39;3.78;;;1.50;;
42192;SDS011;52467;40.114;18.306;2023-07-13T12:38:10;3.97;;;1.60;;
42192;SDS011;52467;40.114;18.306;2023-07-13T12:40:38;4.70;;;1.70;;
42192;SDS011;52467;40.114;18.306;2023-07-13T12:43:11;2.97;;;1.50;;
42192;SDS011;52467;40.114;18.306;2023-07-13T12:45:39;3.33;;;1.60;;
42192;SDS011;52467;40.114;18.306;2023-07-13T12:48:23;3.33;;;1.48;;
42192;SDS011;52467;40.114;18.306;2023-07-13T12:50:55;3.38;;;1.50;;
42192;SDS011;52467;40.114;18.306;2023-07-13T12:53:23;3.90;;;1.80;;
42192;SDS011;52467;40.114;18.306;2023-07-13T12:55:56;4.28;;;1.58;;
42192;SDS011;52467;40.114;18.306;2023-07-13T13:01:06;3.42;;;1.40;;
42192;SDS011;52467;40.114;18.306;2023-07-13T13:03:37;3.70;;;1.55;;
42192;SDS011;52467;40.114;18.306;2023-07-13T13:06:07;5.38;;;1.65;;
42192;SDS011;52467;40.114;18.306;2023-07-13T13:08:46;2.30;;;1.80;;
42192;SDS011;52467;40.114;18.306;2023-07-13T13:11:15;5.95;;;1.63;;
42192;SDS011;52467;40.114;18.306;2023-07-13T13:13:43;1.73;;;1.50;;
42192;SDS011;52467;40.114;18.306;2023-07-13T13:16:21;2.57;;;1.70;;
42192;SDS011;52467;40.114;18.306;2023-07-13T13:19:27;4.85;;;1.85;;
42192;SDS011;52467;40.114;18.306;2023-07-13T13:21:55;4.40;;;1.80;;
42192;SDS011;52467;40.114;18.306;2023-07-13T13:24:25;3.92;;;1.67;;
42192;SDS011;52467;40.114;18.306;2023-07-13T13:26:53;2.57;;;1.30;;
42192;SDS011;52467;40.114;18.306;2023-07-13T13:29:23;4.60;;;1.92;;
42192;SDS011;52467;40.114;18.306;2023-07-13T13:31:52;2.70;;;1.75;;
42192;SDS011;52467;40.114;18.306;2023-07-13T13:34:21;3.78;;;1.75;;
42192;SDS011;52467;40.114;18.306;2023-07-13T13:36:50;4.82;;;1.63;;
42192;SDS011;52467;40.114;18.306;2023-07-13T13:39:23;3.10;;;1.80;;
42192;SDS011;52467;40.114;18.306;2023-07-13T13:42:01;3.33;;;2.00;;
42192;SDS011;52467;40.114;18.306;2023-07-13T13:44:28;2.40;;;1.40;;
42192;SDS011;52467;40.114;18.306;2023-07-13T13:46:55;2.00;;;1.80;;
42192;SDS011;52467;40.114;18.306;2023-07-13T13:49:25;3.72;;;1.33;;
42192;SDS011;52467;40.114;18.306;2023-07-13T13:51:53;3.58;;;1.50;;
42192;SDS011;52467;40.114;18.306;2023-07-13T13:54:21;7.75;;;1.80;;
42192;SDS011;52467;40.114;18.306;2023-07-13T13:56:51;8.10;;;2.05;;
42192;SDS011;52467;40.114;18.306;2023-07-13T13:59:18;2.92;;;1.60;;
42192;SDS011;52467;40.114;18.306;2023-07-13T14:01:46;3.80;;;1.73;;
42192;SDS011;52467;40.114;18.306;2023-07-13T14:04:18;6.38;;;1.95;;
42192;SDS011;52467;40.114;18.306;2023-07-13T14:06:47;3.38;;;1.60;;
42192;SDS011;52467;40.114;18.306;2023-07-13T14:09:16;3.30;;;1.80;;
42192;SDS011;52467;40.114;18.306;2023-07-13T14:11:45;2.95;;;1.83;;
42192;SDS011;52467;40.114;18.306;2023-07-13T14:14:16;4.32;;;1.95;;
42192;SDS011;52467;40.114;18.306;2023-07-13T14:16:46;3.43;;;1.83;;
42192;SDS011;52467;40.114;18.306;2023-07-13T14:19:20;2.30;;;1.90;;
42192;SDS011;52467;40.114;18.306;2023-07-13T14:21:47;2.73;;;1.60;;
42192;SDS011;52467;40.114;18.306;2023-07-13T14:24:18;4.30;;;1.60;;
42192;SDS011;52467;40.114;18.306;2023-07-13T14:26:45;2.58;;;1.80;;
42192;SDS011;52467;40.114;18.306;2023-07-13T14:29:14;2.47;;;1.85;;
42192;SDS011;52467;40.114;18.306;2023-07-13T14:31:45;3.40;;;1.73;;
42192;SDS011;52467;40.114;18.306;2023-07-13T14:34:14;2.63;;;1.67;;
42192;SDS011;52467;40.114;18.306;2023-07-13T14:36:45;3.20;;;1.50;;
42192;SDS011;52467;40.114;18.306;2023-07-13T14:39:16;2.95;;;1.58;;
42192;SDS011;52467;40.114;18.306;2023-07-13T14:41:45;2.72;;;1.52;;
42192;SDS011;52467;40.114;18.306;2023-07-13T14:44:13;5.95;;;1.65;;
42192;SDS011;52467;40.114;18.306;2023-07-13T14:46:42;6.40;;;1.90;;
42192;SDS011;52467;40.114;18.306;2023-07-13T14:51:45;4.50;;;1.50;;
42192;SDS011;52467;40.114;18.306;2023-07-13T14:54:18;1.60;;;1.23;;
42192;SDS011;52467;40.114;18.306;2023-07-13T14:56:46;5.95;;;1.77;;
42192;SDS011;52467;40.114;18.306;2023-07-13T14:59:14;4.47;;;1.70;;
42192;SDS011;52467;40.114;18.306;2023-07-13T15:01:41;4.00;;;1.90;;
42192;SDS011;52467;40.114;18.306;2023-07-13T15:04:08;4.45;;;2.20;;
42192;SDS011;52467;40.114;18.306;2023-07-13T15:09:23;3.53;;;1.50;;
42192;SDS011;52467;40.114;18.306;2023-07-13T15:11:54;2.63;;;1.55;;
42192;SDS011;52467;40.114;18.306;2023-07-13T15:14:22;2.67;;;1.50;;
42192;SDS011;52467;40.114;18.306;2023-07-13T15:16:52;3.83;;;1.30;;
42192;SDS011;52467;40.114;18.306;2023-07-13T15:19:21;3.58;;;1.52;;
42192;SDS011;52467;40.114;18.306;2023-07-13T15:21:50;3.63;;;1.50;;
42192;SDS011;52467;40.114;18.306;2023-07-13T15:24:18;3.83;;;1.70;;
42192;SDS011;52467;40.114;18.306;2023-07-13T15:26:47;9.43;;;1.90;;
42192;SDS011;52467;40.114;18.306;2023-07-13T15:29:16;3.17;;;1.50;;